ADDS METAR Data INFO
IDs: Format: Raw Decoded Include TAF

Data at: 2052 UTC 26 May 2017

KOZA 262035Z AUTO 00000KT 10SM 38/M01 A2988 RMK AO2
KOZA 262015Z AUTO 24010G18KT 220V290 10SM 38/00 A2989 RMK AO2
KOZA 261955Z AUTO 27005G17KT 10SM 38/00 A2990 RMK AO2
KOZA 261935Z AUTO 30010G18KT 10SM 38/01 A2990 RMK AO2
KOZA 261915Z AUTO 36010G15KT 300V010 10SM 38/01 A2990 RMK AO2
KOZA 261855Z AUTO 30007KT 250V310 10SM 37/01 A2990 RMK AO2
KOZA 261815Z AUTO 26007G14KT 10SM 37/00 A2991 RMK AO2
KOZA 261755Z AUTO 32010G16KT 290V350 10SM 37/00 A2991 RMK AO2
KOZA 261735Z AUTO 31013G18KT 10SM 37/01 A2992 RMK AO2
KOZA 261715Z AUTO 32009G14KT 280V340 10SM 36/05 A2992 RMK AO2
KOZA 261655Z AUTO 33012G16KT 10SM 35/06 A2993 RMK AO2
KOZA 261635Z AUTO 31008KT 10SM 34/10 A2993 RMK AO2
KOZA 261615Z AUTO 29008G14KT 260V320 10SM 32/13 A2993 RMK AO2
KOZA 261555Z AUTO 30006KT 10SM 31/15 A2993 RMK AO2
KOZA 261535Z AUTO 28007KT 10SM 30/17 A2993 RMK AO2
KOZA 261515Z AUTO 29005KT 10SM 28/18 A2994 RMK AO2
KOZA 261455Z AUTO 23005KT 10SM 27/20 A2994 RMK AO2
KOZA 261435Z AUTO 22006KT 10SM 26/20 A2994 RMK AO2
KOZA 261415Z AUTO 21007KT 10SM 25/20 A2994 RMK AO2
KOZA 261355Z AUTO 22010KT 10SM 24/21 A2994 RMK AO2
KOZA 261335Z AUTO 21009KT 7SM 23/21 A2993 RMK AO2
KOZA 261315Z AUTO 20008KT 7SM 23/21 A2992 RMK AO2
KOZA 261255Z AUTO 19007KT 7SM 22/21 A2991 RMK AO2
KOZA 261235Z AUTO 19005KT 7SM 21/20 A2990 RMK AO2
KOZA 261215Z AUTO 20004KT 7SM 20/19 A2989 RMK AO2
KOZA 261155Z AUTO 20004KT 10SM 21/19 A2988 RMK AO2
KOZA 261135Z AUTO 20005KT 10SM 21/19 A2987 RMK AO2
KOZA 261115Z AUTO 20005KT 10SM 21/19 A2987 RMK AO2
KOZA 261055Z AUTO 21004KT 10SM 21/18 A2986 RMK AO2
KOZA 261035Z AUTO 20005KT 10SM 21/17 A2986 RMK AO2
KOZA 261015Z AUTO 19005KT 10SM 21/17 A2986 RMK AO2
KOZA 260955Z AUTO 20005KT 10SM 21/17 A2986 RMK AO2
KOZA 260935Z AUTO 00000KT 10SM 21/17 A2985 RMK AO2
KOZA 260915Z AUTO 21004KT 10SM 22/17 A2984 RMK AO2
KOZA 260855Z AUTO 19005KT 10SM 19/16 A2983 RMK AO2
KOZA 260835Z AUTO 16004KT 10SM 18/15 A2983 RMK AO2
KOZA 260815Z AUTO 00000KT 10SM 18/15 A2983 RMK AO2
KOZA 260755Z AUTO 00000KT 10SM 19/15 A2983 RMK AO2
KOZA 260735Z AUTO 00000KT 10SM 19/15 A2983 RMK AO2
KOZA 260715Z AUTO 31003KT 10SM 19/15 A2983 RMK AO2
KOZA 260655Z AUTO 00000KT 10SM 20/15 A2983 RMK AO2
KOZA 260635Z AUTO 02003KT 10SM 20/15 A2983 RMK AO2
KOZA 260615Z AUTO 00000KT 10SM 21/16 A2982 RMK AO2
KOZA 260555Z AUTO 00000KT 10SM 20/16 A2982 RMK AO2
KOZA 260535Z AUTO 36004KT 10SM 21/16 A2982 RMK AO2
KOZA 260515Z AUTO 04003KT 10SM 21/16 A2982 RMK AO2
KOZA 260455Z AUTO 00000KT 10SM 22/16 A2982 RMK AO2
KOZA 260435Z AUTO 00000KT 10SM 22/16 A2981 RMK AO2
KOZA 260415Z AUTO 36005KT 10SM 24/16 A2981 RMK AO2
KOZA 260355Z AUTO 19006KT 10SM 24/16 A2979 RMK AO2
KOZA 260335Z AUTO 00000KT 10SM 25/16 A2979 RMK AO2
KOZA 260315Z AUTO 25003KT 10SM 26/15 A2978 RMK AO2
KOZA 260255Z AUTO 00000KT 10SM 27/15 A2977 RMK AO2
KOZA 260235Z AUTO 17003KT 10SM 28/15 A2976 RMK AO2
KOZA 260215Z AUTO 18009G20KT 10SM 28/15 A2974 RMK AO2
KOZA 260155Z AUTO 16007KT 10SM 29/15 A2974 RMK AO2
KOZA 260135Z AUTO 18007G20KT 10SM 30/13 A2973 RMK AO2
KOZA 260115Z AUTO 19011G21KT 10SM 31/13 A2972 RMK AO2
KOZA 260055Z AUTO 18013G19KT 10SM 32/12 A2971 RMK AO2
KOZA 260035Z AUTO 19009G19KT 10SM 32/12 A2970 RMK AO2
KOZA 260015Z AUTO 18016G21KT 10SM 33/12 A2970 RMK AO2
KOZA 252355Z AUTO 18014G21KT 10SM 33/12 A2970 RMK AO2
KOZA 252335Z AUTO 18014G19KT 10SM 34/12 A2970 RMK AO2
KOZA 252315Z AUTO 18014G21KT 10SM 35/11 A2970 RMK AO2
KOZA 252255Z AUTO 18014G21KT 10SM 35/12 A2970 RMK AO2
KOZA 252235Z AUTO 19015G21KT 10SM 35/11 A2970 RMK AO2
KOZA 252215Z AUTO 19014G20KT 10SM 36/11 A2971 RMK AO2
KOZA 252155Z AUTO 18010G18KT 10SM 36/10 A2972 RMK AO2
KOZA 252135Z AUTO 18016G20KT 10SM 36/11 A2973 RMK AO2
KOZA 252115Z AUTO 19011G16KT 10SM 35/11 A2973 RMK AO2
KOZA 252055Z AUTO 20012G16KT 10SM 35/10 A2974 RMK AO2
KOZA 252035Z AUTO 21013G18KT 10SM 35/10 A2975 RMK AO2
KOZA 252015Z AUTO 20011G18KT 10SM 35/10 A2975 RMK AO2
KOZA 251955Z AUTO 20012G19KT 10SM 33/11 A2976 RMK AO2
KOZA 251935Z AUTO 20012G19KT 10SM 33/11 A2977 RMK AO2
KOZA 251915Z AUTO 20013KT 10SM 33/10 A2977 RMK AO2
KOZA 251855Z AUTO 18014G19KT 10SM 33/11 A2977 RMK AO2
KOZA 251835Z AUTO 18015G20KT 10SM 32/11 A2978 RMK AO2
KOZA 251815Z 18015G23KT 10SM 31/11 A2979 RMK AO2
KOZA 251755Z 20015G22KT 10SM 31/10 A2980 RMK AO2
KOZA 251735Z 18015G20KT 10SM 30/10 A2980 RMK AO2
KOZA 251715Z 20013G22KT 10SM 30/10 A2980 RMK AO2
KOZA 251655Z 19015KT 10SM 28/10 A2981 RMK AO2
KOZA 251635Z 19014G23KT 10SM 27/10 A2981 RMK AO2
KOZA 251615Z 19011G23KT 10SM 27/10 A2981 RMK AO2
KOZA 251555Z 19016G21KT 10SM 27/11 A2981 RMK AO2
KOZA 251535Z 18015KT 10SM 26/11 A2981 RMK AO2
KOZA 251515Z 19011G19KT 10SM 25/11 A2981 RMK AO2
KOZA 251455Z 19013G18KT 10SM 24/11 A2981 RMK AO2
KOZA 251435Z 19012KT 10SM 22/11 A2981 RMK AO2
KOZA 251415Z 19014KT 10SM 22/11 A2981 RMK AO2
KOZA 251355Z 20012G20KT 10SM 21/10 A2980 RMK AO2
KOZA 251335Z 20010KT 10SM 20/10 A2980 RMK AO2
KOZA 251315Z 20011G15KT 10SM 19/10 A2980 RMK AO2
KOZA 251255Z 19008G14KT 10SM 17/10 A2979 RMK AO2
KOZA 251235Z 20006KT 10SM 16/08 A2979 RMK AO2
KOZA 251215Z 20007KT 10SM 16/07 A2978 RMK AO2
KOZA 251155Z 19005KT 10SM 15/07 A2978 RMK AO2
KOZA 251135Z 20006KT 10SM 15/06 A2977 RMK AO2
KOZA 251115Z 21005KT 10SM 14/06 A2977 RMK AO2
KOZA 251055Z 20006KT 10SM 13/07 A2976 RMK AO2
KOZA 251035Z 20008KT 10SM 13/07 A2976 RMK AO2
KOZA 251015Z 19007KT 10SM 13/07 A2976 RMK AO2
KOZA 250955Z 20006KT 10SM 15/07 A2976 RMK AO2
KOZA 250935Z 21005KT 10SM 15/07 A2975 RMK AO2
KOZA 250915Z 20005KT 10SM 14/07 A2975 RMK AO2
KOZA 250855Z 20005KT 10SM 15/07 A2976 RMK AO2


Page loaded:  20:52 UTC  |   01:52 PM Pacific  |   02:52 PM Mountain  |   03:52 PM Central  |   04:52 PM Eastern

 

ADVISORIES

FORECASTS

FORECASTS

OBSERVATIONS

USER TOOLS

ABOUT US